createdAt,value
2023-04-13T00:00:44.894Z,2.47
2023-04-13T00:03:13.481Z,3.80
2023-04-13T00:05:41.318Z,2.75
2023-04-13T00:08:08.902Z,4.45
2023-04-13T00:10:36.643Z,3.60
2023-04-13T00:13:05.367Z,2.65
2023-04-13T00:15:38.389Z,2.67
2023-04-13T00:18:10.956Z,2.88
2023-04-13T00:20:39.335Z,3.55
2023-04-13T00:23:06.679Z,2.55
2023-04-13T00:30:34.178Z,2.47
2023-04-13T00:33:05.160Z,2.95
2023-04-13T00:35:32.888Z,2.55
2023-04-13T00:38:03.192Z,2.72
2023-04-13T00:40:31.162Z,2.05
2023-04-13T00:43:00.728Z,2.95
2023-04-13T00:45:28.368Z,3.05
2023-04-13T00:47:58.003Z,3.05
2023-04-13T00:50:25.958Z,3.08
2023-04-13T00:52:53.828Z,4.30
2023-04-13T00:55:22.084Z,2.22
2023-04-13T00:57:53.512Z,2.45
2023-04-13T01:00:22.109Z,2.55
2023-04-13T01:02:50.877Z,2.35
2023-04-13T01:05:19.789Z,4.00
2023-04-13T01:08:16.939Z,2.53
2023-04-13T01:10:56.919Z,3.17
2023-04-13T01:13:41.247Z,2.22
2023-04-13T01:16:30.888Z,3.92
2023-04-13T01:19:00.125Z,2.47
2023-04-13T01:21:30.554Z,2.83
2023-04-13T01:24:09.022Z,3.50
2023-04-13T01:26:53.471Z,2.60
2023-04-13T01:29:21.733Z,2.42
2023-04-13T01:31:50.295Z,2.78
2023-04-13T01:34:18.283Z,2.53
2023-04-13T01:36:46.854Z,2.38
2023-04-13T01:39:22.172Z,2.60
2023-04-13T01:41:58.421Z,2.90
2023-04-13T01:44:33.003Z,2.30
2023-04-13T01:47:16.598Z,2.55
2023-04-13T01:50:15.680Z,2.50
2023-04-13T01:52:58.010Z,2.17
2023-04-13T01:55:27.183Z,3.15
2023-04-13T01:57:59.134Z,2.47
2023-04-13T02:00:34.315Z,2.20
2023-04-13T02:03:06.985Z,3.10
2023-04-13T02:05:37.057Z,2.38
2023-04-13T02:08:06.563Z,2.42
2023-04-13T02:10:38.090Z,2.40
2023-04-13T02:13:06.121Z,2.15
2023-04-13T02:15:38.452Z,2.00
2023-04-13T02:18:06.724Z,2.95
2023-04-13T02:20:43.836Z,3.65
2023-04-13T02:23:15.136Z,2.47
2023-04-13T02:25:48.182Z,2.70
2023-04-13T02:28:18.130Z,2.63
2023-04-13T02:30:47.239Z,2.85
2023-04-13T02:33:15.042Z,2.60
2023-04-13T02:35:42.490Z,1.95
2023-04-13T02:40:43.987Z,3.10
2023-04-13T02:43:12.452Z,2.55
2023-04-13T02:45:41.840Z,2.08
2023-04-13T02:48:13.243Z,2.45
2023-04-13T02:50:40.966Z,3.30
2023-04-13T02:53:12.608Z,2.83
2023-04-13T02:55:43.413Z,2.67
2023-04-13T02:58:13.624Z,2.88
2023-04-13T03:00:45.014Z,1.83
2023-04-13T03:03:14.467Z,3.85
2023-04-13T03:05:46.249Z,3.30
2023-04-13T03:08:18.904Z,2.72
2023-04-13T03:11:02.069Z,2.95
2023-04-13T03:13:30.032Z,3.33
2023-04-13T03:16:00.589Z,2.45
2023-04-13T03:18:28.514Z,2.45
2023-04-13T03:20:56.481Z,2.30
2023-04-13T03:23:28.379Z,2.47
2023-04-13T03:25:56.177Z,3.15
2023-04-13T03:28:24.059Z,2.58
2023-04-13T03:30:52.622Z,3.00
2023-04-13T03:33:20.482Z,2.33
2023-04-13T03:35:48.169Z,2.90
2023-04-13T03:38:26.134Z,3.05
2023-04-13T03:40:53.796Z,2.25
2023-04-13T03:43:21.586Z,2.40
2023-04-13T03:45:59.184Z,2.25
2023-04-13T03:48:27.514Z,3.45
2023-04-13T03:50:56.275Z,2.90
2023-04-13T03:53:29.123Z,2.28
2023-04-13T03:55:57.032Z,2.92
2023-04-13T03:58:24.551Z,2.63
2023-04-13T04:00:53.098Z,2.05
2023-04-13T04:03:35.242Z,2.63
2023-04-13T04:06:07.771Z,2.30
2023-04-13T04:08:37.326Z,2.33
2023-04-13T04:11:09.321Z,2.22
2023-04-13T04:13:36.876Z,2.67
2023-04-13T04:16:11.610Z,2.90
2023-04-13T04:18:44.827Z,2.53
2023-04-13T04:21:15.855Z,2.90
2023-04-13T04:23:44.652Z,2.55
2023-04-13T04:26:14.009Z,2.70
2023-04-13T04:28:47.544Z,2.45
2023-04-13T04:31:19.397Z,2.28
2023-04-13T04:33:51.941Z,1.83
2023-04-13T04:36:21.235Z,1.83
2023-04-13T04:39:02.619Z,2.33
2023-04-13T04:41:37.902Z,2.72
2023-04-13T04:44:07.941Z,2.75
2023-04-13T04:46:41.690Z,2.75
2023-04-13T04:49:13.237Z,2.95
2023-04-13T04:51:41.642Z,1.90
2023-04-13T04:54:12.324Z,2.47
2023-04-13T04:56:39.870Z,1.95
2023-04-13T04:59:08.325Z,2.13
2023-04-13T05:01:43.527Z,1.98
2023-04-13T05:04:13.582Z,2.22
2023-04-13T05:06:44.852Z,1.70
2023-04-13T05:09:18.142Z,1.55
2023-04-13T05:11:49.211Z,3.72
2023-04-13T05:14:19.107Z,1.80
2023-04-13T05:19:21.640Z,2.33
2023-04-13T05:22:03.494Z,2.33
2023-04-13T05:24:38.042Z,2.10
2023-04-13T05:27:11.965Z,2.10
2023-04-13T05:29:40.446Z,1.67
2023-04-13T05:32:08.266Z,2.58
2023-04-13T05:34:38.284Z,1.98
2023-04-13T05:37:14.792Z,2.35
2023-04-13T05:39:45.271Z,3.10
2023-04-13T05:42:13.693Z,2.17
2023-04-13T05:44:44.501Z,1.55
2023-04-13T05:47:13.334Z,2.17
2023-04-13T05:49:43.211Z,2.08
2023-04-13T05:52:11.325Z,1.60
2023-04-13T05:54:43.752Z,1.77
2023-04-13T05:57:11.621Z,2.05
2023-04-13T05:59:44.771Z,1.30
2023-04-13T06:02:14.883Z,3.00
2023-04-13T06:04:43.471Z,1.83
2023-04-13T06:07:11.676Z,1.63
2023-04-13T06:09:41.809Z,1.50
2023-04-13T06:12:09.335Z,1.90
2023-04-13T06:14:37.002Z,1.65
2023-04-13T06:17:04.512Z,1.85
2023-04-13T06:19:32.149Z,1.55
2023-04-13T06:24:28.623Z,1.40
2023-04-13T06:27:04.984Z,1.55
2023-04-13T06:29:33.295Z,1.55
2023-04-13T06:32:07.681Z,1.30
2023-04-13T06:34:36.993Z,1.73
2023-04-13T06:37:05.517Z,1.73
2023-04-13T06:39:42.315Z,1.60
2023-04-13T06:42:11.093Z,1.60
2023-04-13T06:44:52.975Z,2.70
2023-04-13T06:47:22.762Z,3.22
2023-04-13T06:49:50.602Z,3.70
2023-04-13T06:52:18.631Z,3.88
2023-04-13T06:54:46.067Z,4.78
2023-04-13T06:57:26.582Z,4.05
2023-04-13T06:59:54.674Z,3.78
2023-04-13T07:02:23.090Z,3.42
2023-04-13T07:04:50.966Z,2.58
2023-04-13T07:07:18.877Z,2.55
2023-04-13T07:09:46.735Z,2.50
2023-04-13T07:12:14.388Z,2.15
2023-04-13T07:14:44.759Z,2.50
2023-04-13T07:17:15.076Z,1.98
2023-04-13T07:19:48.106Z,1.77
2023-04-13T07:22:16.267Z,2.00
2023-04-13T07:24:46.757Z,2.10
2023-04-13T07:27:18.455Z,1.67
2023-04-13T07:29:46.052Z,2.22
2023-04-13T07:32:20.869Z,2.00
2023-04-13T07:34:48.746Z,1.70
2023-04-13T07:37:16.935Z,1.90
2023-04-13T07:39:45.016Z,1.63
2023-04-13T07:42:12.982Z,1.50
2023-04-13T07:44:45.838Z,1.45
2023-04-13T07:47:14.343Z,1.88
2023-04-13T07:49:44.132Z,1.33
2023-04-13T07:52:22.984Z,1.50
2023-04-13T07:54:52.437Z,1.20
2023-04-13T07:57:21.509Z,1.52
2023-04-13T07:59:55.756Z,1.55
2023-04-13T08:02:24.508Z,1.70
2023-04-13T08:04:55.322Z,1.40
2023-04-13T08:07:29.793Z,1.55
2023-04-13T08:09:57.317Z,1.50
2023-04-13T08:12:25.083Z,1.25
2023-04-13T08:15:00.631Z,1.48
2023-04-13T08:17:28.483Z,1.40
2023-04-13T08:19:55.909Z,1.30
2023-04-13T08:22:23.844Z,1.13
2023-04-13T08:24:51.256Z,1.58
2023-04-13T08:27:19.850Z,1.30
2023-04-13T08:29:47.568Z,1.10
2023-04-13T08:32:16.387Z,1.27
2023-04-13T08:34:43.849Z,1.35
2023-04-13T08:37:15.453Z,1.00
2023-04-13T08:39:44.793Z,1.40
2023-04-13T08:42:13.551Z,2.13
2023-04-13T08:44:42.983Z,1.52
2023-04-13T08:47:11.538Z,2.50
2023-04-13T08:49:40.976Z,1.55
2023-04-13T08:52:16.876Z,1.48
2023-04-13T08:54:48.748Z,2.53
2023-04-13T08:57:22.433Z,1.20
2023-04-13T08:59:55.599Z,1.10
2023-04-13T09:02:26.507Z,1.73
2023-04-13T09:05:00.806Z,1.20
2023-04-13T09:07:34.934Z,1.00
2023-04-13T09:10:09.552Z,1.52
2023-04-13T09:12:37.220Z,1.30
2023-04-13T09:15:09.270Z,1.30
2023-04-13T09:17:46.493Z,1.27
2023-04-13T09:20:24.680Z,1.33
2023-04-13T09:22:52.630Z,1.55
2023-04-13T09:25:20.928Z,1.30
2023-04-13T09:27:52.839Z,0.80
2023-04-13T09:30:29.872Z,0.73
2023-04-13T09:33:08.583Z,0.95
2023-04-13T09:35:37.292Z,0.60
2023-04-13T09:38:06.400Z,1.38
2023-04-13T09:40:38.334Z,0.77
2023-04-13T09:43:08.148Z,1.05
2023-04-13T09:45:37.585Z,0.77
2023-04-13T09:48:16.054Z,1.00
2023-04-13T09:50:44.653Z,1.00
2023-04-13T09:53:12.313Z,1.02
2023-04-13T09:55:40.323Z,0.82
2023-04-13T09:58:17.738Z,0.70
2023-04-13T10:00:46.668Z,1.13
2023-04-13T10:03:15.733Z,0.70
2023-04-13T10:05:57.743Z,1.23
2023-04-13T10:08:37.400Z,1.02
2023-04-13T10:11:11.989Z,1.10
2023-04-13T10:14:09.520Z,0.70
2023-04-13T10:16:45.284Z,0.90
2023-04-13T10:19:17.187Z,0.90
2023-04-13T10:21:48.752Z,1.08
2023-04-13T10:24:17.327Z,1.00
2023-04-13T10:26:45.335Z,0.77
2023-04-13T10:29:15.005Z,1.30
2023-04-13T10:31:49.139Z,0.88
2023-04-13T10:34:28.093Z,0.80
2023-04-13T10:36:58.478Z,1.02
2023-04-13T10:39:28.173Z,1.20
2023-04-13T10:42:01.754Z,1.63
2023-04-13T10:44:43.261Z,1.08
2023-04-13T10:47:12.407Z,0.90
2023-04-13T10:49:43.632Z,1.10
2023-04-13T10:52:11.694Z,0.95
2023-04-13T10:54:40.587Z,0.93
2023-04-13T10:57:11.296Z,0.77
2023-04-13T10:59:56.066Z,0.95
2023-04-13T11:02:26.451Z,1.40
2023-04-13T11:04:54.162Z,0.57
2023-04-13T11:07:23.516Z,0.55
2023-04-13T11:09:51.138Z,0.45
2023-04-13T11:12:19.634Z,0.60
2023-04-13T11:14:51.252Z,0.50
2023-04-13T11:17:20.030Z,0.35
2023-04-13T11:19:50.682Z,0.30
2023-04-13T11:22:22.794Z,0.30
2023-04-13T11:24:52.051Z,0.22
2023-04-13T11:27:21.653Z,0.40
2023-04-13T11:30:06.558Z,0.80
2023-04-13T11:32:34.592Z,1.13
2023-04-13T11:35:06.398Z,7.97
2023-04-13T11:37:41.968Z,1.05
2023-04-13T11:40:14.077Z,0.50
2023-04-13T11:42:44.169Z,0.95
2023-04-13T11:45:14.745Z,0.32
2023-04-13T11:47:43.238Z,1.25
2023-04-13T11:50:11.576Z,0.65
2023-04-13T11:52:40.454Z,0.40
2023-04-13T11:55:21.673Z,0.20
2023-04-13T11:57:52.940Z,0.38
2023-04-13T12:00:26.306Z,0.20
2023-04-13T12:05:32.521Z,1.00
2023-04-13T12:08:02.935Z,0.30
2023-04-13T12:10:42.042Z,1.20
2023-04-13T12:13:35.394Z,0.40
2023-04-13T12:16:10.753Z,0.38
2023-04-13T12:18:46.849Z,0.25
2023-04-13T12:21:20.479Z,0.70
2023-04-13T12:23:58.724Z,0.82
2023-04-13T12:29:08.113Z,0.55
2023-04-13T12:31:37.575Z,1.35
2023-04-13T12:34:06.710Z,0.90
2023-04-13T12:36:36.503Z,0.68
2023-04-13T12:39:04.890Z,0.70
2023-04-13T12:41:34.111Z,0.73
2023-04-13T12:44:01.659Z,0.68
2023-04-13T12:46:29.322Z,0.50
2023-04-13T12:48:56.982Z,0.90
2023-04-13T12:51:24.706Z,0.80
2023-04-13T12:53:52.265Z,0.50
2023-04-13T12:56:19.689Z,1.13
2023-04-13T12:58:47.163Z,0.70
2023-04-13T13:01:15.442Z,0.82
2023-04-13T13:03:44.171Z,0.25
2023-04-13T13:06:11.624Z,0.50
2023-04-13T13:08:40.368Z,0.40
2023-04-13T13:11:11.257Z,0.20
2023-04-13T13:13:38.731Z,0.25
2023-04-13T13:16:06.790Z,0.77
2023-04-13T13:19:00.719Z,0.80
2023-04-13T13:21:23.282Z,0.50
2023-04-13T13:23:50.695Z,0.82
2023-04-13T13:28:48.738Z,2.85
2023-04-13T13:31:16.276Z,3.13
2023-04-13T13:33:43.799Z,1.83
2023-04-13T13:36:12.695Z,5.07
2023-04-13T13:38:40.736Z,3.58
2023-04-13T13:41:08.336Z,2.90
2023-04-13T13:43:36.070Z,2.30
2023-04-13T13:46:05.642Z,2.30
2023-04-13T13:48:34.813Z,6.82
2023-04-13T13:51:31.810Z,0.75
2023-04-13T13:54:01.072Z,0.68
2023-04-13T13:56:28.504Z,3.28
2023-04-13T13:58:56.014Z,1.25
2023-04-13T14:01:23.528Z,2.00
2023-04-13T14:03:51.315Z,0.55
2023-04-13T14:06:19.014Z,0.70
2023-04-13T14:08:46.780Z,1.85
2023-04-13T14:11:14.658Z,3.35
2023-04-13T14:13:42.212Z,0.50
2023-04-13T14:16:09.826Z,0.20
2023-04-13T14:18:37.769Z,0.20
2023-04-13T14:21:05.554Z,0.17
2023-04-13T14:23:33.309Z,0.10
2023-04-13T14:26:00.745Z,0.20
2023-04-13T14:28:28.204Z,0.15
2023-04-13T14:30:55.637Z,0.20
2023-04-13T14:33:23.193Z,0.20
2023-04-13T14:35:50.636Z,0.20
2023-04-13T14:38:18.266Z,0.10
2023-04-13T14:40:45.679Z,0.20
2023-04-13T14:43:13.177Z,0.10
2023-04-13T14:45:40.605Z,0.20
2023-04-13T14:48:08.341Z,0.10
2023-04-13T14:50:39.212Z,0.10
2023-04-13T14:53:07.898Z,0.30
2023-04-13T14:55:35.367Z,0.17
2023-04-13T14:58:03.867Z,0.20
2023-04-13T15:00:41.145Z,0.20
2023-04-13T15:03:10.665Z,0.20
2023-04-13T15:05:39.327Z,0.22
2023-04-13T15:08:07.765Z,0.20
2023-04-13T15:10:35.529Z,0.25
2023-04-13T15:13:04.254Z,0.20
2023-04-13T15:15:34.067Z,0.10
2023-04-13T15:18:03.007Z,0.28
2023-04-13T15:20:31.379Z,0.30
2023-04-13T15:22:59.274Z,0.20
2023-04-13T15:25:27.090Z,0.10
2023-04-13T15:27:56.020Z,0.20
2023-04-13T15:30:35.485Z,0.10
2023-04-13T15:33:03.726Z,0.70
2023-04-13T15:35:33.908Z,0.80
2023-04-13T15:38:04.420Z,0.40
2023-04-13T15:40:33.929Z,0.40
2023-04-13T15:43:02.420Z,0.38
2023-04-13T15:45:30.128Z,0.40
2023-04-13T15:47:57.814Z,0.47
2023-04-13T15:50:25.423Z,0.47
2023-04-13T15:52:53.014Z,0.30
2023-04-13T15:55:21.163Z,0.60
2023-04-13T15:57:50.272Z,0.30
2023-04-13T16:00:18.513Z,0.60
2023-04-13T16:02:46.088Z,0.63
2023-04-13T16:05:13.889Z,0.70
2023-04-13T16:07:41.761Z,0.90
2023-04-13T16:10:15.646Z,0.55
2023-04-13T16:12:46.264Z,0.40
2023-04-13T16:15:13.896Z,0.63
2023-04-13T16:17:43.628Z,0.60
2023-04-13T16:20:14.558Z,0.63
2023-04-13T16:22:43.065Z,0.50
2023-04-13T16:25:11.534Z,0.30
2023-04-13T16:27:40.139Z,0.52
2023-04-13T16:30:08.777Z,0.85
2023-04-13T16:32:36.444Z,0.30
2023-04-13T16:35:04.299Z,0.45
2023-04-13T16:37:31.894Z,0.75
2023-04-13T16:39:59.478Z,0.55
2023-04-13T16:42:26.905Z,0.50
2023-04-13T16:44:54.464Z,0.90
2023-04-13T16:47:21.887Z,1.00
2023-04-13T16:49:49.358Z,0.30
2023-04-13T16:54:44.488Z,1.10
2023-04-13T16:57:12.584Z,0.60
2023-04-13T16:59:40.065Z,0.60
2023-04-13T17:02:13.145Z,0.70
2023-04-13T17:04:45.673Z,0.70
2023-04-13T17:07:13.257Z,0.60
2023-04-13T17:09:40.845Z,0.57
2023-04-13T17:12:08.287Z,0.43
2023-04-13T17:14:35.867Z,0.40
2023-04-13T17:17:03.359Z,0.60
2023-04-13T17:19:30.905Z,0.50
2023-04-13T17:21:58.397Z,0.88
2023-04-13T17:24:26.052Z,0.57
2023-04-13T17:26:53.496Z,0.30
2023-04-13T17:29:22.010Z,0.40
2023-04-13T17:31:50.056Z,0.90
2023-04-13T17:34:17.733Z,0.63
2023-04-13T17:36:45.755Z,0.82
2023-04-13T17:39:13.360Z,0.82
2023-04-13T17:41:41.798Z,0.68
2023-04-13T17:44:12.483Z,0.57
2023-04-13T17:46:43.275Z,0.65
2023-04-13T17:49:13.113Z,0.80
2023-04-13T17:51:41.013Z,0.80
2023-04-13T17:54:09.447Z,0.68
2023-04-13T17:56:36.925Z,0.70
2023-04-13T17:59:04.497Z,1.10
2023-04-13T18:01:32.373Z,1.20
2023-04-13T18:04:00.526Z,1.13
2023-04-13T18:06:28.065Z,0.50
2023-04-13T18:08:55.746Z,0.60
2023-04-13T18:11:23.148Z,0.88
2023-04-13T18:13:50.780Z,2.10
2023-04-13T18:16:18.556Z,1.40
2023-04-13T18:18:46.845Z,0.90
2023-04-13T18:21:20.961Z,0.70
2023-04-13T18:23:51.236Z,0.70
2023-04-13T18:26:22.933Z,0.85
2023-04-13T18:28:59.630Z,0.63
2023-04-13T18:31:27.301Z,0.90
2023-04-13T18:33:54.765Z,1.85
2023-04-13T18:36:24.659Z,1.95
2023-04-13T18:38:52.276Z,2.10
2023-04-13T18:41:19.940Z,1.70
2023-04-13T18:43:47.417Z,1.70
2023-04-13T18:46:14.969Z,2.20
2023-04-13T18:48:42.510Z,1.90
2023-04-13T18:51:10.656Z,2.83
2023-04-13T18:53:38.957Z,5.28
2023-04-13T18:56:06.601Z,5.97
2023-04-13T18:58:34.035Z,4.82
2023-04-13T19:01:01.553Z,3.20
2023-04-13T19:03:29.343Z,2.28
2023-04-13T19:05:57.097Z,1.70
2023-04-13T19:08:24.669Z,1.45
2023-04-13T19:10:52.152Z,0.95
2023-04-13T19:13:19.644Z,1.67
2023-04-13T19:15:47.225Z,1.50
2023-04-13T19:18:14.775Z,1.30
2023-04-13T19:20:42.287Z,1.50
2023-04-13T19:23:09.745Z,1.65
2023-04-13T19:25:37.189Z,1.30
2023-04-13T19:30:32.398Z,1.48
2023-04-13T19:33:00.216Z,2.28
2023-04-13T19:35:29.395Z,2.20
2023-04-13T19:37:56.920Z,2.05
2023-04-13T19:40:26.333Z,1.60
2023-04-13T19:42:54.036Z,2.10
2023-04-13T19:45:21.690Z,1.73
2023-04-13T19:47:49.400Z,1.80
2023-04-13T19:50:16.901Z,2.00
2023-04-13T19:55:15.587Z,2.10
2023-04-13T19:57:43.094Z,1.83
2023-04-13T20:00:20.597Z,2.35
2023-04-13T20:02:49.970Z,2.53
2023-04-13T20:05:19.518Z,2.30
2023-04-13T20:07:47.180Z,2.25
2023-04-13T20:10:14.611Z,2.60
2023-04-13T20:12:42.170Z,2.67
2023-04-13T20:15:09.831Z,2.70
2023-04-13T20:17:37.314Z,2.88
2023-04-13T20:20:06.727Z,3.25
2023-04-13T20:22:34.254Z,3.65
2023-04-13T20:25:01.746Z,4.13
2023-04-13T20:27:30.401Z,4.13
2023-04-13T20:29:58.017Z,3.45
2023-04-13T20:32:25.749Z,4.20
2023-04-13T20:34:55.519Z,3.95
2023-04-13T20:37:23.082Z,3.72
2023-04-13T20:39:50.567Z,3.42
2023-04-13T20:42:22.580Z,3.95
2023-04-13T20:44:57.863Z,3.90
2023-04-13T20:47:28.557Z,3.90
2023-04-13T20:49:57.722Z,3.88
2023-04-13T20:52:26.021Z,4.03
2023-04-13T20:54:54.742Z,3.63
2023-04-13T20:57:23.180Z,3.00
2023-04-13T20:59:52.168Z,3.28
2023-04-13T21:02:20.550Z,3.30
2023-04-13T21:04:48.214Z,3.20
2023-04-13T21:07:16.441Z,3.22
2023-04-13T21:09:44.572Z,3.00
2023-04-13T21:12:12.029Z,3.72
2023-04-13T21:17:06.975Z,3.47
2023-04-13T21:22:04.905Z,3.20
2023-04-13T21:26:59.593Z,3.92
2023-04-13T21:31:54.386Z,5.05
2023-04-13T21:34:22.672Z,3.60
2023-04-13T21:36:52.153Z,4.00
2023-04-13T21:39:20.470Z,3.90
2023-04-13T21:41:47.909Z,3.17
2023-04-13T21:46:58.749Z,2.90
2023-04-13T21:49:26.692Z,3.08
2023-04-13T21:51:54.181Z,2.80
2023-04-13T21:56:54.198Z,2.90
2023-04-13T22:01:49.277Z,2.83
2023-04-13T22:04:16.826Z,5.38
2023-04-13T22:06:44.456Z,2.80
2023-04-13T22:09:12.425Z,2.78
2023-04-13T22:11:40.499Z,2.50
2023-04-13T22:14:08.019Z,2.72
2023-04-13T22:16:35.704Z,2.60
2023-04-13T22:19:07.655Z,2.67
2023-04-13T22:21:38.035Z,3.20
2023-04-13T22:24:05.985Z,2.60
2023-04-13T22:26:33.497Z,2.63
2023-04-13T22:29:01.128Z,2.47
2023-04-13T22:31:28.934Z,2.08
2023-04-13T22:33:56.525Z,2.83
2023-04-13T22:36:24.120Z,3.80
2023-04-13T22:38:52.130Z,4.68
2023-04-13T22:41:19.882Z,4.25
2023-04-13T22:43:47.385Z,3.10
2023-04-13T22:46:14.964Z,2.67
2023-04-13T22:48:42.392Z,2.40
2023-04-13T22:53:37.278Z,2.85
2023-04-13T22:56:05.656Z,2.58
2023-04-13T22:58:33.028Z,2.67
2023-04-13T23:03:28.331Z,2.38
2023-04-13T23:05:56.155Z,2.70
2023-04-13T23:08:23.657Z,2.50
2023-04-13T23:10:51.301Z,2.40
2023-04-13T23:13:18.759Z,2.38
2023-04-13T23:15:47.678Z,2.20
2023-04-13T23:18:15.450Z,2.42
2023-04-13T23:20:43.004Z,2.63
2023-04-13T23:23:10.385Z,2.50
2023-04-13T23:30:32.307Z,2.33
2023-04-13T23:35:27.140Z,1.95
2023-04-13T23:40:22.012Z,1.67
2023-04-13T23:42:49.463Z,1.90
2023-04-13T23:45:17.276Z,2.10
2023-04-13T23:47:44.849Z,2.00
2023-04-13T23:50:12.403Z,1.75
2023-04-13T23:55:07.825Z,1.70
2023-04-13T23:57:35.381Z,1.85
